Nambouwalu, Fiji
Current Conditions -  °F | °C
As of 9:00 AM on Thursday 27 Nov 2014 (Local Time) from NFNA Reporting Station
Broken Clouds Broken Clouds  
Wind Chill: 81°   Ceiling: 2200
Heat Index: 85°   Visibility: 6mi
Dew Point: 72°   Wind: 8mph
Humidity: 74%   Direction: 140°SE
Pressure: 29.8"   Gusts: NA
Location:  16.99°S, 178.69°E
Report Text: NFNA 262100Z 14007KT 9999 BKN022 BKN300 27/22 Q1009
Loading
Personal Weather Stations






























Interactive Weather Map New forecast layout! Learn more

10-Day Weather Forecast

Advertisements
Track Severe Weather on mobile